createdAt,value
2018-04-22T00:02:13.394Z,8.83
2018-04-22T00:04:45.325Z,11.27
2018-04-22T00:07:16.517Z,11.93
2018-04-22T00:09:47.701Z,10.60
2018-04-22T00:12:18.883Z,12.67
2018-04-22T00:14:50.162Z,12.83
2018-04-22T00:17:21.309Z,10.73
2018-04-22T00:19:52.574Z,11.20
2018-04-22T00:22:23.718Z,10.47
2018-04-22T00:24:54.908Z,12.03
2018-04-22T00:27:26.105Z,11.37
2018-04-22T00:29:57.302Z,10.97
2018-04-22T00:32:28.528Z,14.00
2018-04-22T00:35:00.554Z,13.10
2018-04-22T00:37:31.755Z,13.00
2018-04-22T00:40:02.982Z,11.23
2018-04-22T00:42:34.190Z,9.60
2018-04-22T00:45:05.408Z,10.70
2018-04-22T00:47:36.938Z,11.73
2018-04-22T00:50:08.111Z,13.87
2018-04-22T00:52:39.334Z,10.17
2018-04-22T00:55:10.570Z,11.47
2018-04-22T00:57:43.302Z,12.23
2018-04-22T01:00:14.546Z,11.97
2018-04-22T01:02:45.956Z,12.73
2018-04-22T01:05:18.229Z,11.97
2018-04-22T01:07:49.459Z,10.30
2018-04-22T01:10:22.451Z,11.13
2018-04-22T01:12:53.643Z,10.37
2018-04-22T01:15:24.942Z,12.83
2018-04-22T01:17:56.190Z,12.70
2018-04-22T01:20:27.390Z,11.47
2018-04-22T01:22:58.603Z,13.20
2018-04-22T01:25:29.825Z,12.40
2018-04-22T01:28:01.062Z,13.53
2018-04-22T01:30:32.267Z,13.33
2018-04-22T01:33:04.576Z,12.40
2018-04-22T01:35:35.799Z,12.73
2018-04-22T01:38:07.766Z,11.40
2018-04-22T01:40:38.998Z,12.20
2018-04-22T01:43:10.907Z,13.87
2018-04-22T01:45:42.150Z,13.83
2018-04-22T01:48:13.613Z,15.17
2018-04-22T01:50:44.806Z,13.33
2018-04-22T01:53:16.751Z,13.97
2018-04-22T01:55:48.760Z,13.50
2018-04-22T01:58:19.937Z,10.90
2018-04-22T02:00:51.109Z,13.27
2018-04-22T02:03:24.111Z,12.97
2018-04-22T02:05:55.343Z,13.80
2018-04-22T02:08:26.502Z,11.30
2018-04-22T02:10:57.644Z,10.70
2018-04-22T02:13:28.829Z,13.77
2018-04-22T02:16:00.133Z,10.50
2018-04-22T02:18:31.370Z,10.73
2018-04-22T02:21:02.528Z,11.80
2018-04-22T02:23:34.079Z,12.77
2018-04-22T02:26:05.232Z,12.33
2018-04-22T02:28:36.442Z,11.13
2018-04-22T02:31:09.398Z,14.27
2018-04-22T02:33:41.425Z,11.33
2018-04-22T02:36:14.358Z,11.53
2018-04-22T02:38:46.293Z,10.27
2018-04-22T02:41:17.487Z,11.20
2018-04-22T02:43:48.657Z,15.97
2018-04-22T02:46:19.847Z,12.47
2018-04-22T02:48:51.790Z,12.17
2018-04-22T02:51:22.972Z,11.40
2018-04-22T02:53:54.199Z,13.03
2018-04-22T02:56:25.490Z,11.90
2018-04-22T02:58:56.697Z,11.57
2018-04-22T03:01:28.255Z,9.77
2018-04-22T03:03:59.470Z,12.37
2018-04-22T03:06:31.391Z,12.00
2018-04-22T03:09:02.590Z,11.13
2018-04-22T03:11:33.774Z,12.50
2018-04-22T03:14:04.964Z,10.53
2018-04-22T03:16:36.227Z,14.43
2018-04-22T03:19:07.442Z,11.20
2018-04-22T03:21:38.672Z,14.63
2018-04-22T03:24:10.177Z,12.13
2018-04-22T03:26:41.341Z,12.13
2018-04-22T03:29:12.885Z,9.33
2018-04-22T03:31:44.059Z,10.63
2018-04-22T03:34:15.785Z,12.37
2018-04-22T03:36:47.018Z,11.97
2018-04-22T03:39:18.264Z,12.43
2018-04-22T03:41:49.450Z,10.97
2018-04-22T03:44:20.721Z,11.20
2018-04-22T03:46:52.655Z,10.87
2018-04-22T03:49:24.117Z,11.93
2018-04-22T03:51:56.031Z,10.37
2018-04-22T03:54:27.242Z,10.47
2018-04-22T03:56:59.252Z,9.23
2018-04-22T03:59:30.477Z,9.80
2018-04-22T04:02:01.703Z,9.43
2018-04-22T04:04:32.911Z,11.77
2018-04-22T04:07:04.120Z,9.33
2018-04-22T04:09:35.354Z,10.13
2018-04-22T04:12:06.592Z,9.97
2018-04-22T04:14:37.784Z,8.93
2018-04-22T04:17:09.356Z,10.80
2018-04-22T04:19:53.728Z,10.87
2018-04-22T04:22:37.290Z,10.07
2018-04-22T04:25:30.336Z,11.97
2018-04-22T04:28:01.891Z,8.17
2018-04-22T04:30:33.089Z,8.13
2018-04-22T04:33:05.039Z,7.87
2018-04-22T04:35:36.994Z,8.73
2018-04-22T04:38:08.309Z,8.17
2018-04-22T04:40:39.502Z,9.50
2018-04-22T04:43:11.463Z,9.40
2018-04-22T04:45:43.432Z,9.67
2018-04-22T04:48:14.647Z,8.97
2018-04-22T04:50:45.902Z,7.63
2018-04-22T04:53:17.291Z,8.50
2018-04-22T04:55:48.475Z,5.97
2018-04-22T04:58:19.783Z,5.63
2018-04-22T05:00:50.996Z,7.70
2018-04-22T05:03:22.190Z,6.33
2018-04-22T05:05:53.407Z,7.10
2018-04-22T05:08:24.589Z,7.90
2018-04-22T05:10:56.004Z,7.53
2018-04-22T05:13:27.216Z,12.10
2018-04-22T05:15:59.167Z,6.97
2018-04-22T05:18:31.896Z,6.97
2018-04-22T05:21:03.139Z,4.77
2018-04-22T05:23:34.317Z,5.40
2018-04-22T05:26:06.676Z,5.40
2018-04-22T05:28:37.859Z,6.23
2018-04-22T05:31:09.902Z,6.40
2018-04-22T05:33:41.090Z,6.30
2018-04-22T05:36:12.287Z,5.17
2018-04-22T05:38:43.710Z,6.60
2018-04-22T05:41:14.874Z,7.97
2018-04-22T05:43:46.392Z,6.13
2018-04-22T05:46:17.555Z,4.93
2018-04-22T05:48:49.062Z,5.43
2018-04-22T05:51:20.235Z,6.27
2018-04-22T05:53:52.542Z,7.93
2018-04-22T05:56:23.721Z,5.07
2018-04-22T05:58:54.994Z,4.20
2018-04-22T06:01:26.198Z,5.70
2018-04-22T06:03:57.434Z,4.10
2018-04-22T06:06:28.644Z,4.83
2018-04-22T06:08:59.841Z,6.40
2018-04-22T06:11:31.027Z,5.90
2018-04-22T06:14:02.242Z,6.97
2018-04-22T06:16:33.680Z,5.57
2018-04-22T06:19:04.971Z,7.43
2018-04-22T06:21:36.174Z,6.43
2018-04-22T06:24:07.723Z,5.17
2018-04-22T06:26:38.911Z,7.03
2018-04-22T06:29:10.156Z,6.57
2018-04-22T06:31:43.525Z,5.97
2018-04-22T06:34:22.024Z,5.23
2018-04-22T06:36:53.801Z,6.20
2018-04-22T06:39:25.122Z,8.73
2018-04-22T06:41:56.679Z,8.13
2018-04-22T06:44:27.868Z,7.83
2018-04-22T06:46:59.471Z,8.00
2018-04-22T06:49:30.659Z,6.93
2018-04-22T06:52:02.159Z,5.93
2018-04-22T06:54:33.376Z,7.63
2018-04-22T06:57:04.574Z,8.00
2018-04-22T06:59:35.794Z,6.57
2018-04-22T07:02:07.020Z,7.73
2018-04-22T07:04:38.946Z,7.23
2018-04-22T07:07:10.140Z,9.30
2018-04-22T07:09:41.334Z,6.27
2018-04-22T07:12:12.671Z,6.63
2018-04-22T07:14:51.608Z,7.30
2018-04-22T07:17:22.853Z,7.20
2018-04-22T07:19:54.168Z,6.53
2018-04-22T07:22:25.440Z,5.13
2018-04-22T07:24:56.667Z,7.20
2018-04-22T07:27:27.861Z,7.20
2018-04-22T07:30:00.151Z,7.17
2018-04-22T07:32:31.333Z,6.30
2018-04-22T07:35:02.568Z,4.80
2018-04-22T07:37:33.781Z,5.67
2018-04-22T07:40:05.051Z,8.00
2018-04-22T07:42:36.257Z,6.50
2018-04-22T07:45:07.514Z,7.60
2018-04-22T07:47:38.704Z,6.30
2018-04-22T07:50:10.760Z,5.30
2018-04-22T07:52:41.995Z,7.23
2018-04-22T07:55:13.200Z,6.27
2018-04-22T07:57:44.818Z,5.73
2018-04-22T08:00:16.063Z,6.30
2018-04-22T08:02:47.381Z,7.37
2018-04-22T08:05:18.604Z,7.67
2018-04-22T08:07:49.842Z,5.40
2018-04-22T08:10:21.064Z,7.43
2018-04-22T08:12:52.260Z,7.40
2018-04-22T08:15:23.504Z,10.40
2018-04-22T08:17:54.694Z,7.87
2018-04-22T08:20:26.577Z,8.27
2018-04-22T08:22:57.852Z,8.13
2018-04-22T08:25:29.066Z,7.97
2018-04-22T08:28:00.339Z,9.73
2018-04-22T08:30:31.531Z,9.33
2018-04-22T08:33:03.514Z,8.97
2018-04-22T08:35:34.725Z,7.33
2018-04-22T08:38:06.741Z,7.90
2018-04-22T08:40:37.995Z,8.67
2018-04-22T08:43:09.229Z,11.33
2018-04-22T08:45:40.455Z,11.43
2018-04-22T08:48:11.730Z,9.80
2018-04-22T08:50:42.984Z,8.40
2018-04-22T08:53:14.218Z,9.27
2018-04-22T08:55:45.491Z,9.87
2018-04-22T08:58:16.674Z,9.57
2018-04-22T09:00:47.970Z,9.37
2018-04-22T09:03:20.807Z,9.93
2018-04-22T09:05:52.023Z,12.60
2018-04-22T09:08:23.227Z,8.33
2018-04-22T09:10:54.472Z,12.60
2018-04-22T09:13:26.359Z,9.87
2018-04-22T09:15:58.263Z,12.00
2018-04-22T09:18:29.473Z,10.07
2018-04-22T09:21:01.504Z,13.93
2018-04-22T09:23:32.715Z,12.00
2018-04-22T09:26:03.939Z,12.50
2018-04-22T09:28:35.178Z,9.57
2018-04-22T09:31:07.122Z,9.23
2018-04-22T09:33:38.498Z,9.07
2018-04-22T09:36:10.061Z,10.60
2018-04-22T09:38:41.286Z,12.47
2018-04-22T09:41:12.772Z,10.00
2018-04-22T09:43:43.996Z,11.37
2018-04-22T09:46:15.254Z,9.00
2018-04-22T09:48:46.475Z,12.40
2018-04-22T09:51:17.715Z,10.07
2018-04-22T09:53:48.930Z,9.73
2018-04-22T09:56:20.883Z,8.77
2018-04-22T09:58:52.387Z,11.73
2018-04-22T10:01:23.629Z,11.90
2018-04-22T10:03:55.767Z,10.43
2018-04-22T10:06:27.696Z,9.13
2018-04-22T10:08:59.171Z,9.40
2018-04-22T10:11:31.074Z,11.40
2018-04-22T10:14:02.275Z,11.27
2018-04-22T10:16:34.204Z,8.97
2018-04-22T10:19:05.788Z,9.43
2018-04-22T10:21:37.810Z,9.87
2018-04-22T10:24:09.345Z,10.13
2018-04-22T10:26:40.599Z,9.43
2018-04-22T10:29:11.823Z,12.07
2018-04-22T10:31:43.136Z,9.77
2018-04-22T10:34:15.073Z,11.77
2018-04-22T10:36:46.601Z,8.20
2018-04-22T10:39:17.859Z,11.27
2018-04-22T10:41:49.190Z,8.83
2018-04-22T10:44:20.819Z,10.00
2018-04-22T10:46:52.067Z,7.53
2018-04-22T10:49:23.308Z,9.50
2018-04-22T10:51:54.486Z,8.23
2018-04-22T10:54:25.767Z,7.77
2018-04-22T10:56:56.940Z,8.03
2018-04-22T10:59:28.154Z,6.97
2018-04-22T11:02:00.505Z,8.00
2018-04-22T11:04:31.689Z,8.57
2018-04-22T11:07:02.870Z,7.87
2018-04-22T11:09:34.097Z,8.40
2018-04-22T11:12:05.315Z,6.37
2018-04-22T11:14:36.516Z,7.67
2018-04-22T11:17:08.505Z,6.30
2018-04-22T11:19:40.467Z,6.17
2018-04-22T11:22:12.467Z,5.57
2018-04-22T11:24:44.021Z,6.03
2018-04-22T11:27:15.243Z,6.83
2018-04-22T11:29:46.513Z,8.50
2018-04-22T11:32:17.690Z,7.17
2018-04-22T11:34:48.886Z,7.00
2018-04-22T11:37:20.369Z,6.90
2018-04-22T11:39:52.643Z,6.00
2018-04-22T11:42:24.816Z,8.60
2018-04-22T11:44:56.064Z,7.37
2018-04-22T11:47:27.228Z,7.07
2018-04-22T11:49:59.470Z,6.77
2018-04-22T11:52:31.098Z,9.27
2018-04-22T11:55:02.377Z,7.57
2018-04-22T11:57:33.600Z,6.13
2018-04-22T12:00:05.127Z,9.37
2018-04-22T12:02:36.433Z,7.00
2018-04-22T12:05:08.424Z,10.40
2018-04-22T12:07:39.615Z,7.60
2018-04-22T12:10:11.578Z,6.40
2018-04-22T12:12:42.794Z,6.77
2018-04-22T12:15:14.035Z,5.23
2018-04-22T12:17:45.289Z,6.03
2018-04-22T12:20:16.468Z,6.73
2018-04-22T12:22:47.795Z,8.70
2018-04-22T12:25:19.259Z,5.97
2018-04-22T12:27:50.440Z,12.43
2018-04-22T12:30:21.765Z,10.53
2018-04-22T12:32:53.679Z,6.90
2018-04-22T12:35:25.201Z,6.37
2018-04-22T12:37:56.756Z,5.17
2018-04-22T12:40:29.250Z,4.87
2018-04-22T12:43:00.480Z,5.57
2018-04-22T12:45:31.700Z,6.37
2018-04-22T12:48:02.959Z,4.80
2018-04-22T12:50:34.146Z,5.93
2018-04-22T12:53:05.384Z,4.83
2018-04-22T12:55:36.615Z,4.47
2018-04-22T12:58:08.161Z,4.27
2018-04-22T13:00:39.338Z,5.43
2018-04-22T13:03:10.700Z,5.53
2018-04-22T13:05:41.911Z,5.37
2018-04-22T13:08:13.246Z,4.07
2018-04-22T13:10:44.439Z,5.00
2018-04-22T13:13:16.406Z,4.10
2018-04-22T13:15:48.385Z,5.77
2018-04-22T13:18:19.576Z,4.10
2018-04-22T13:20:50.983Z,4.63
2018-04-22T13:23:22.199Z,8.77
2018-04-22T13:25:54.223Z,10.30
2018-04-22T13:28:25.872Z,5.60
2018-04-22T13:30:57.147Z,6.47
2018-04-22T13:33:28.387Z,13.23
2018-04-22T13:35:59.588Z,5.07
2018-04-22T13:38:30.880Z,6.07
2018-04-22T13:41:02.060Z,5.40
2018-04-22T13:43:33.330Z,6.47
2018-04-22T13:46:04.533Z,6.47
2018-04-22T13:48:35.749Z,34.67
2018-04-22T13:51:06.955Z,45.17
2018-04-22T13:53:38.170Z,30.00
2018-04-22T13:56:09.403Z,7.97
2018-04-22T13:58:41.422Z,6.23
2018-04-22T14:01:12.639Z,4.33
2018-04-22T14:03:43.860Z,4.67
2018-04-22T14:06:15.867Z,7.13
2018-04-22T14:08:47.069Z,5.40
2018-04-22T14:11:19.083Z,5.47
2018-04-22T14:13:50.294Z,4.23
2018-04-22T14:16:21.484Z,4.73
2018-04-22T14:18:53.415Z,4.43
2018-04-22T14:21:24.591Z,5.73
2018-04-22T14:23:56.210Z,4.93
2018-04-22T14:26:27.408Z,4.70
2018-04-22T14:28:59.356Z,5.13
2018-04-22T14:31:31.316Z,5.20
2018-04-22T14:34:03.278Z,4.90
2018-04-22T14:36:34.810Z,6.90
2018-04-22T14:39:05.995Z,6.00
2018-04-22T14:41:37.971Z,4.47
2018-04-22T14:44:21.751Z,4.70
2018-04-22T14:46:53.290Z,6.90
2018-04-22T14:49:24.438Z,6.03
2018-04-22T14:51:55.643Z,10.17
2018-04-22T14:54:26.942Z,8.47
2018-04-22T14:56:58.186Z,7.47
2018-04-22T14:59:29.476Z,15.40
2018-04-22T15:02:00.677Z,10.60
2018-04-22T15:04:32.199Z,18.87
2018-04-22T15:07:03.375Z,5.43
2018-04-22T15:09:34.976Z,22.93
2018-04-22T15:12:06.159Z,10.67
2018-04-22T15:14:37.408Z,18.73
2018-04-22T15:17:08.627Z,13.47
2018-04-22T15:19:39.831Z,20.07
2018-04-22T15:22:11.084Z,14.53
2018-04-22T15:24:42.334Z,13.20
2018-04-22T15:27:13.579Z,11.43
2018-04-22T15:29:44.770Z,12.27
2018-04-22T15:32:16.015Z,16.20
2018-04-22T15:34:47.266Z,16.57
2018-04-22T15:37:18.459Z,13.07
2018-04-22T15:39:49.741Z,12.53
2018-04-22T15:42:20.926Z,16.70
2018-04-22T15:44:52.215Z,9.57
2018-04-22T15:47:23.487Z,13.03
2018-04-22T15:49:54.720Z,9.70
2018-04-22T15:52:25.922Z,12.07
2018-04-22T15:54:57.401Z,10.30
2018-04-22T15:57:28.636Z,10.37
2018-04-22T15:59:59.831Z,7.57
2018-04-22T16:02:31.795Z,10.60
2018-04-22T16:05:03.796Z,10.83
2018-04-22T16:07:35.047Z,8.17
2018-04-22T16:10:06.244Z,10.97
2018-04-22T17:34:39.718Z,39.40
2018-04-22T17:37:10.907Z,35.80
2018-04-22T17:39:42.136Z,57.47
2018-04-22T17:42:14.091Z,32.70
2018-04-22T17:44:46.062Z,44.57
2018-04-22T17:47:17.352Z,35.30
2018-04-22T17:49:48.829Z,17.57
2018-04-22T17:52:20.048Z,20.30
2018-04-22T17:54:51.259Z,10.90
2018-04-22T17:57:22.471Z,9.90
2018-04-22T17:59:54.000Z,12.57
2018-04-22T18:02:25.175Z,27.43
2018-04-22T18:04:57.176Z,27.33
2018-04-22T18:07:28.415Z,50.37
2018-04-22T18:09:59.655Z,17.90
2018-04-22T18:12:30.884Z,21.13
2018-04-22T18:15:02.115Z,29.43
2018-04-22T18:17:34.080Z,17.40
2018-04-22T18:20:05.312Z,11.87
2018-04-22T18:22:36.486Z,14.87
2018-04-22T18:25:07.711Z,21.67
2018-04-22T18:27:39.701Z,11.80
2018-04-22T18:30:11.248Z,10.47
2018-04-22T18:32:42.452Z,10.10
2018-04-22T18:35:13.666Z,6.90
2018-04-22T18:37:44.962Z,6.93
2018-04-22T18:40:16.232Z,11.47
2018-04-22T18:42:47.472Z,9.40
2018-04-22T18:45:18.736Z,8.43
2018-04-22T18:47:50.771Z,32.60
2018-04-22T18:50:22.082Z,47.73
2018-04-22T18:52:53.294Z,19.10
2018-04-22T18:55:24.510Z,26.97
2018-04-22T18:57:55.682Z,9.27
2018-04-22T19:00:27.128Z,12.37
2018-04-22T19:02:59.617Z,9.33
2018-04-22T19:05:31.407Z,11.67
2018-04-22T19:08:02.623Z,5.80
2018-04-22T19:10:33.967Z,9.03
2018-04-22T19:13:05.151Z,8.47
2018-04-22T19:15:36.380Z,6.73
2018-04-22T19:18:08.294Z,10.53
2018-04-22T19:20:39.631Z,10.80
2018-04-22T19:23:10.867Z,8.53
2018-04-22T19:25:42.059Z,7.23
2018-04-22T19:28:13.643Z,8.83
2018-04-22T19:30:45.599Z,7.80
2018-04-22T19:33:17.892Z,8.33
2018-04-22T19:35:49.119Z,7.03
2018-04-22T19:38:21.100Z,6.20
2018-04-22T19:40:52.286Z,6.73
2018-04-22T19:43:23.778Z,6.30
2018-04-22T19:45:55.692Z,8.17
2018-04-22T19:48:26.918Z,7.73
2018-04-22T19:50:58.156Z,7.93
2018-04-22T19:53:29.342Z,9.10
2018-04-22T19:56:00.551Z,6.83
2018-04-22T19:58:31.737Z,7.37
2018-04-22T20:01:03.702Z,7.83
2018-04-22T20:03:35.635Z,6.73
2018-04-22T20:06:06.909Z,8.23
2018-04-22T20:08:38.148Z,8.40
2018-04-22T20:11:10.148Z,8.13
2018-04-22T20:13:41.383Z,9.77
2018-04-22T20:16:12.613Z,7.87
2018-04-22T20:18:43.842Z,9.70
2018-04-22T20:21:15.754Z,9.77
2018-04-22T20:23:46.936Z,7.30
2018-04-22T20:26:18.873Z,7.23
2018-04-22T20:28:50.106Z,8.17
2018-04-22T20:31:21.397Z,7.47
2018-04-22T20:33:53.339Z,7.20
2018-04-22T20:36:24.590Z,7.90
2018-04-22T20:38:56.104Z,7.40
2018-04-22T20:41:27.279Z,7.67
2018-04-22T20:43:58.520Z,12.53
2018-04-22T20:46:29.716Z,8.93
2018-04-22T20:49:00.939Z,8.70
2018-04-22T20:51:32.189Z,9.97
2018-04-22T20:54:03.430Z,7.93
2018-04-22T20:56:34.665Z,7.70
2018-04-22T20:59:06.582Z,8.13
2018-04-22T21:01:37.768Z,11.93
2018-04-22T21:04:09.667Z,8.53
2018-04-22T21:06:40.874Z,8.53
2018-04-22T21:09:12.803Z,9.20
2018-04-22T21:11:45.109Z,7.77
2018-04-22T21:14:16.291Z,7.40
2018-04-22T21:16:47.498Z,7.47
2018-04-22T21:19:18.779Z,7.80
2018-04-22T21:21:50.060Z,9.70
2018-04-22T21:24:21.271Z,6.60
2018-04-22T21:26:52.479Z,9.17
2018-04-22T21:29:23.669Z,8.87
2018-04-22T21:31:54.902Z,7.23
2018-04-22T21:34:26.079Z,10.43
2018-04-22T21:36:57.301Z,8.50
2018-04-22T21:39:28.512Z,8.73
2018-04-22T21:42:00.084Z,9.23
2018-04-22T21:44:31.294Z,5.97
2018-04-22T21:47:02.518Z,6.70
2018-04-22T21:49:34.453Z,5.20
2018-04-22T21:52:05.975Z,8.63
2018-04-22T21:54:37.242Z,7.43
2018-04-22T21:57:09.257Z,5.90
2018-04-22T21:59:40.413Z,6.07
2018-04-22T22:02:11.611Z,6.93
2018-04-22T22:04:42.791Z,7.37
2018-04-22T22:07:14.060Z,6.63
2018-04-22T22:09:45.718Z,5.33
2018-04-22T22:12:16.936Z,5.07
2018-04-22T22:14:48.503Z,5.47
2018-04-22T22:17:19.682Z,6.50
2018-04-22T22:19:50.903Z,9.23
2018-04-22T22:22:22.106Z,5.50
2018-04-22T22:24:54.185Z,4.60
2018-04-22T22:27:25.443Z,11.73
2018-04-22T22:29:56.995Z,9.70
2018-04-22T22:32:28.232Z,5.90
2018-04-22T22:34:59.425Z,6.00
2018-04-22T22:37:30.626Z,4.50
2018-04-22T22:40:01.836Z,5.67
2018-04-22T22:42:33.785Z,5.37
2018-04-22T22:45:04.971Z,7.13
2018-04-22T22:47:36.189Z,5.73
2018-04-22T22:50:07.398Z,5.33
2018-04-22T22:52:39.471Z,5.43
2018-04-22T22:55:11.470Z,6.33
2018-04-22T22:57:42.655Z,5.63
2018-04-22T23:00:13.862Z,5.50
2018-04-22T23:02:45.060Z,5.00
2018-04-22T23:05:16.279Z,5.17
2018-04-22T23:07:47.535Z,5.03
2018-04-22T23:10:19.560Z,6.57
2018-04-22T23:12:50.782Z,6.60
2018-04-22T23:15:22.746Z,4.97
2018-04-22T23:17:54.927Z,5.47
2018-04-22T23:20:26.107Z,6.53
2018-04-22T23:22:57.326Z,5.73
2018-04-22T23:25:28.481Z,5.50
2018-04-22T23:27:59.965Z,6.00
2018-04-22T23:30:31.131Z,5.87
2018-04-22T23:33:03.134Z,8.73
2018-04-22T23:35:34.355Z,4.73
2018-04-22T23:38:05.558Z,5.43
2018-04-22T23:40:36.767Z,5.87
2018-04-22T23:43:08.289Z,6.63
2018-04-22T23:45:39.492Z,5.73
2018-04-22T23:48:10.678Z,5.83
2018-04-22T23:50:41.925Z,6.27
2018-04-22T23:53:13.166Z,6.07
2018-04-22T23:55:44.353Z,6.07
2018-04-22T23:58:15.494Z,5.73
